Time;durP1;ratioP1;P1;durP2;ratioP2;P2;SDS_P1;SDS_P2;PMS_P1;PMS_P2;Temp;Humidity;BMP_temperature;BMP_pressure;BME280_temperature;BME280_humidity;BME280_pressure;Samples;Min_cycle;Max_cycle;Signal;HPM_P1;HPM_P2
2022/02/22 00:00:52;;;;;;;19.20;11.65;;;6.10;90.00;;;;;;1933404;74;21047;-54
2022/02/22 00:03:23;;;;;;;21.25;12.78;;;6.10;90.00;;;;;;1933433;74;21027;-51
2022/02/22 00:05:52;;;;;;;21.65;13.15;;;6.10;89.90;;;;;;1933382;74;21000;-53
2022/02/22 00:08:21;;;;;;;20.40;12.68;;;6.20;90.00;;;;;;1933399;74;21097;-53
2022/02/22 00:10:51;;;;;;;20.57;12.70;;;6.20;89.90;;;;;;1933403;74;21024;-53
2022/02/22 00:13:20;;;;;;;19.48;11.88;;;6.20;90.00;;;;;;1933368;74;21156;-52
2022/02/22 00:15:49;;;;;;;25.25;12.53;;;6.20;90.00;;;;;;1933388;74;21113;-53
2022/02/22 00:18:19;;;;;;;26.80;14.30;;;6.30;90.10;;;;;;1933349;74;21051;-53
2022/02/22 00:20:49;;;;;;;24.70;13.00;;;6.30;90.10;;;;;;1933434;74;21303;-53
2022/02/22 00:23:18;;;;;;;25.48;13.93;;;6.40;90.20;;;;;;1933415;74;21085;-52
2022/02/22 00:25:48;;;;;;;19.75;12.63;;;6.40;90.30;;;;;;1933398;74;21168;-52
2022/02/22 00:28:22;;;;;;;20.57;12.15;;;6.50;89.90;;;;;;1933417;74;21097;-53
2022/02/22 00:30:51;;;;;;;18.37;11.97;;;6.40;90.10;;;;;;1932460;74;21054;-53
2022/02/22 00:33:20;;;;;;;18.15;11.70;;;6.40;89.60;;;;;;1933488;74;21498;-52
2022/02/22 00:35:50;;;;;;;20.32;12.75;;;6.30;87.80;;;;;;1933455;74;21109;-53
2022/02/22 00:38:20;;;;;;;17.95;11.70;;;6.10;89.00;;;;;;1933411;74;21082;-52
2022/02/22 00:40:50;;;;;;;19.00;11.57;;;6.00;89.00;;;;;;1933348;74;21040;-53
2022/02/22 00:43:19;;;;;;;18.90;12.88;;;5.90;88.60;;;;;;1933381;74;21124;-53
2022/02/22 00:45:49;;;;;;;19.00;12.73;;;5.80;89.00;;;;;;1933467;74;21121;-53
2022/02/22 00:48:19;;;;;;;19.35;11.08;;;5.80;90.00;;;;;;1933526;74;20996;-51
2022/02/22 00:50:48;;;;;;;20.00;12.98;;;5.80;90.00;;;;;;1933370;74;21017;-53
2022/02/22 00:53:19;;;;;;;20.92;13.25;;;5.70;90.00;;;;;;1933449;74;21047;-52
2022/02/22 00:55:48;;;;;;;28.30;12.13;;;5.70;90.00;;;;;;1933431;74;21469;-52
2022/02/22 00:58:18;;;;;;;18.05;11.97;;;5.70;90.20;;;;;;1933340;74;21055;-52
2022/02/22 01:00:47;;;;;;;18.92;11.75;;;5.80;90.20;;;;;;1933352;74;21043;-53
2022/02/22 01:03:17;;;;;;;23.85;13.60;;;5.80;90.20;;;;;;1933371;74;21051;-52
2022/02/22 01:05:46;;;;;;;18.73;10.30;;;5.90;90.20;;;;;;1933333;74;21019;-52
2022/02/22 01:08:17;;;;;;;19.23;11.73;;;5.90;90.00;;;;;;1933437;74;21113;-53
2022/02/22 01:10:46;;;;;;;19.10;11.80;;;5.90;90.00;;;;;;1933583;74;21109;-52
2022/02/22 01:13:16;;;;;;;23.05;11.97;;;5.90;90.10;;;;;;1933579;74;21000;-52
2022/02/22 01:15:45;;;;;;;21.95;11.93;;;6.00;90.20;;;;;;1933607;74;21027;-53
2022/02/22 01:18:14;;;;;;;25.75;13.32;;;6.00;90.10;;;;;;1933484;74;21039;-52
2022/02/22 01:20:44;;;;;;;19.87;11.78;;;6.10;90.10;;;;;;1933442;74;21027;-52
2022/02/22 01:23:13;;;;;;;24.57;12.90;;;6.10;90.10;;;;;;1933505;74;21047;-52
2022/02/22 01:25:43;;;;;;;20.37;10.93;;;6.10;90.10;;;;;;1933453;74;21016;-49
2022/02/22 01:28:12;;;;;;;16.93;12.20;;;6.10;90.10;;;;;;1933587;74;21026;-52
2022/02/22 01:30:42;;;;;;;21.68;13.68;;;6.10;89.60;;;;;;1933461;74;21023;-49
2022/02/22 01:33:11;;;;;;;21.90;13.45;;;6.10;89.70;;;;;;1933531;74;21047;-52
2022/02/22 01:35:41;;;;;;;19.98;12.65;;;6.00;89.40;;;;;;1933457;74;21137;-53
2022/02/22 01:38:10;;;;;;;21.85;12.73;;;6.00;90.00;;;;;;1933475;74;21044;-51
2022/02/22 01:40:40;;;;;;;20.75;13.32;;;5.90;89.30;;;;;;1933542;74;21067;-52
2022/02/22 01:43:09;;;;;;;24.50;14.73;;;5.90;89.60;;;;;;1933577;74;21050;-51
2022/02/22 01:45:39;;;;;;;27.75;13.28;;;5.80;89.30;;;;;;1933641;74;21035;-53
2022/02/22 01:48:08;;;;;;;22.22;12.88;;;5.70;88.10;;;;;;1933712;74;21105;-53
2022/02/22 01:50:38;;;;;;;22.98;13.35;;;5.60;89.80;;;;;;1933556;74;21027;-53
2022/02/22 01:53:09;;;;;;;20.10;12.50;;;5.60;90.00;;;;;;1933535;74;21097;-53
2022/02/22 01:55:38;;;;;;;21.82;11.75;;;5.60;90.10;;;;;;1933708;74;21058;-52
2022/02/22 01:58:08;;;;;;;23.92;12.23;;;5.60;90.20;;;;;;1933443;74;21019;-53
2022/02/22 02:00:38;;;;;;;24.37;14.63;;;5.60;89.60;;;;;;1933562;74;21047;-53
2022/02/22 02:03:07;;;;;;;28.62;12.85;;;5.60;90.10;;;;;;1933683;74;21047;-52
2022/02/22 02:05:37;;;;;;;24.57;13.68;;;5.70;90.10;;;;;;1933678;74;21201;-53
2022/02/22 02:08:06;;;;;;;26.85;13.35;;;5.70;90.10;;;;;;1933671;74;21027;-51
2022/02/22 02:10:36;;;;;;;19.65;12.45;;;5.70;90.10;;;;;;1933536;74;21100;-54
2022/02/22 02:13:05;;;;;;;23.90;14.05;;;5.70;89.90;;;;;;1933505;74;21019;-52
2022/02/22 02:15:35;;;;;;;25.05;14.00;;;5.70;90.30;;;;;;1933635;74;21080;-52
2022/02/22 02:18:05;;;;;;;23.05;13.03;;;5.80;90.40;;;;;;1933569;74;21104;-54
2022/02/22 02:20:34;;;;;;;26.55;14.63;;;5.80;90.40;;;;;;1933508;74;21113;-52
2022/02/22 02:23:03;;;;;;;23.92;14.35;;;6.00;90.70;;;;;;1933552;74;21003;-53
2022/02/22 02:25:33;;;;;;;20.97;13.25;;;6.10;90.40;;;;;;1933537;74;21205;-53
2022/02/22 02:28:02;;;;;;;22.70;12.93;;;6.10;90.40;;;;;;1933668;74;21104;-52
2022/02/22 02:30:32;;;;;;;20.62;12.40;;;6.30;90.30;;;;;;1933564;74;21035;-51
2022/02/22 02:33:01;;;;;;;20.45;12.05;;;6.30;90.00;;;;;;1933643;74;21024;-53
2022/02/22 02:35:32;;;;;;;18.45;11.25;;;6.30;89.20;;;;;;1933753;74;21094;-53
2022/02/22 02:38:01;;;;;;;17.82;11.38;;;6.20;90.00;;;;;;1933442;74;20999;-53
2022/02/22 02:40:31;;;;;;;19.98;11.60;;;6.20;90.00;;;;;;1933523;74;21019;-52
2022/02/22 02:43:00;;;;;;;20.95;12.58;;;6.20;90.00;;;;;;1933638;74;21066;-52
2022/02/22 02:45:30;;;;;;;16.32;11.65;;;6.10;89.30;;;;;;1933539;74;21034;-51
2022/02/22 02:47:59;;;;;;;18.52;10.80;;;6.10;88.90;;;;;;1933585;74;21027;-52
2022/02/22 02:50:29;;;;;;;27.25;12.68;;;6.00;88.50;;;;;;1933539;74;21023;-52
2022/02/22 02:52:58;;;;;;;21.62;13.25;;;5.80;88.30;;;;;;1933427;74;20999;-53
2022/02/22 02:55:27;;;;;;;17.32;11.75;;;5.70;89.00;;;;;;1933545;74;21031;-53
2022/02/22 02:57:57;;;;;;;19.65;12.28;;;5.60;89.60;;;;;;1933466;74;21096;-52
2022/02/22 03:00:26;;;;;;;17.90;10.80;;;5.60;90.20;;;;;;1933300;74;21050;-53
2022/02/22 03:02:56;;;;;;;21.20;13.75;;;5.60;90.00;;;;;;1933526;74;21498;-54
2022/02/22 03:05:25;;;;;;;23.87;13.45;;;5.60;89.80;;;;;;1933423;74;21023;-52
2022/02/22 03:07:58;;;;;;;18.73;11.68;;;5.60;90.20;;;;;;1933522;74;21027;-53
2022/02/22 03:10:26;;;;;;;18.80;11.88;;;5.70;90.40;;;;;;1933348;74;21023;-53
2022/02/22 03:12:56;;;;;;;26.37;11.55;;;5.80;90.30;;;;;;1933400;74;21027;-50
2022/02/22 03:15:25;;;;;;;21.25;14.25;;;5.80;90.10;;;;;;1933380;74;21096;-52
2022/02/22 03:17:55;;;;;;;24.27;14.25;;;5.90;90.30;;;;;;1933560;74;20988;-50
2022/02/22 03:20:24;;;;;;;23.32;14.20;;;5.90;90.30;;;;;;1933418;74;21101;-52
2022/02/22 03:22:54;;;;;;;27.48;15.85;;;6.00;90.30;;;;;;1933558;74;21113;-52
2022/02/22 03:25:23;;;;;;;18.25;11.25;;;6.10;90.30;;;;;;1933511;74;21101;-54
2022/02/22 03:27:53;;;;;;;19.55;12.78;;;6.10;90.30;;;;;;1933520;74;21100;-53
2022/02/22 03:30:22;;;;;;;29.37;13.20;;;6.20;90.00;;;;;;1933485;74;21019;-52
2022/02/22 03:32:53;;;;;;;25.37;15.70;;;6.10;89.10;;;;;;1933332;74;21129;-52
2022/02/22 03:35:23;;;;;;;29.15;15.93;;;6.00;89.10;;;;;;1933420;74;21137;-53
2022/02/22 03:37:52;;;;;;;25.35;14.40;;;5.90;90.00;;;;;;1933432;74;21110;-53
2022/02/22 03:40:21;;;;;;;23.87;14.80;;;5.80;89.60;;;;;;1933361;74;21066;-52
2022/02/22 03:42:51;;;;;;;25.70;16.12;;;5.70;90.00;;;;;;1933394;74;21063;-51
2022/02/22 03:45:21;;;;;;;29.48;16.80;;;5.70;90.10;;;;;;1933549;74;21054;-53
2022/02/22 03:47:50;;;;;;;28.15;15.80;;;5.70;90.10;;;;;;1933450;74;21023;-53
2022/02/22 03:50:20;;;;;;;24.18;13.93;;;5.70;90.00;;;;;;1933383;74;21047;-53
2022/02/22 03:52:49;;;;;;;22.80;13.32;;;5.70;89.80;;;;;;1933330;74;21023;-52
2022/02/22 03:55:19;;;;;;;30.70;15.85;;;5.60;90.10;;;;;;1933477;74;21027;-52
2022/02/22 03:57:49;;;;;;;23.70;14.10;;;5.70;90.20;;;;;;1933420;74;21003;-51
2022/02/22 04:00:21;;;;;;;23.55;13.70;;;5.70;90.20;;;;;;1933400;74;21063;-52
2022/02/22 04:02:50;;;;;;;19.98;12.90;;;5.70;90.30;;;;;;1933540;74;21027;-53
2022/02/22 04:05:23;;;;;;;21.65;12.45;;;5.80;90.30;;;;;;1933327;74;21051;-52
2022/02/22 04:07:53;;;;;;;18.62;11.70;;;5.90;90.30;;;;;;1933526;74;21039;-50
2022/02/22 04:10:23;;;;;;;20.72;12.15;;;5.90;90.30;;;;;;1933491;74;21112;-52
2022/02/22 04:12:52;;;;;;;21.60;13.10;;;5.90;90.00;;;;;;1933394;74;21108;-54
2022/02/22 04:15:22;;;;;;;29.82;13.88;;;5.90;90.00;;;;;;1933512;74;21486;-53
2022/02/22 04:17:51;;;;;;;24.05;14.85;;;5.90;90.30;;;;;;1933404;74;21136;-54
2022/02/22 04:20:20;;;;;;;24.67;13.65;;;6.00;90.40;;;;;;1933493;74;21019;-54
2022/02/22 04:22:50;;;;;;;23.83;14.70;;;6.10;90.40;;;;;;1933490;74;21090;-54
2022/02/22 04:25:20;;;;;;;26.62;15.20;;;6.10;90.30;;;;;;1933342;74;20999;-52
2022/02/22 04:27:49;;;;;;;19.27;13.05;;;6.20;90.30;;;;;;1933475;74;21023;-53
2022/02/22 04:30:18;;;;;;;21.30;12.65;;;6.20;89.30;;;;;;1933379;74;21026;-52
2022/02/22 04:32:48;;;;;;;22.22;14.00;;;6.10;89.90;;;;;;1933404;74;21043;-51
2022/02/22 04:35:17;;;;;;;21.45;14.13;;;6.10;90.10;;;;;;1933310;74;21023;-53
2022/02/22 04:37:46;;;;;;;24.75;14.38;;;6.10;90.20;;;;;;1933358;74;21023;-53
2022/02/22 04:40:16;;;;;;;38.42;24.15;;;6.10;90.00;;;;;;1933334;74;21027;-52
2022/02/22 04:42:48;;;;;;;99.07;60.52;;;6.00;88.20;;;;;;1933325;74;21109;-52
2022/02/22 04:45:16;;;;;;;52.90;32.15;;;5.90;89.40;;;;;;1933390;74;21031;-52
2022/02/22 04:47:45;;;;;;;51.33;33.15;;;5.80;89.60;;;;;;1933485;74;21027;-53
2022/02/22 04:50:21;;;;;;;48.58;25.55;;;5.70;89.40;;;;;;1933446;74;21055;-53
2022/02/22 04:52:46;;;;;;;47.33;24.80;;;5.70;89.90;;;;;;1932226;74;21097;-53
2022/02/22 04:55:15;;;;;;;37.55;18.67;;;5.60;90.20;;;;;;1933470;74;21027;-52
2022/02/22 04:57:45;;;;;;;29.60;17.07;;;5.70;90.50;;;;;;1933483;74;21027;-52
2022/02/22 05:00:15;;;;;;;29.20;16.25;;;5.80;90.50;;;;;;1931333;74;21051;-53
2022/02/22 05:02:44;;;;;;;28.98;17.77;;;5.90;90.50;;;;;;1923962;74;21023;-52
2022/02/22 05:05:14;;;;;;;26.93;15.72;;;6.00;90.30;;;;;;1923854;74;21089;-52
2022/02/22 05:07:44;;;;;;;25.10;16.15;;;6.00;89.30;;;;;;1923814;74;21109;-52
2022/02/22 05:10:13;;;;;;;27.45;15.93;;;5.90;90.00;;;;;;1923855;74;21028;-54
2022/02/22 05:12:42;;;;;;;29.48;17.90;;;5.90;89.10;;;;;;1923742;74;21026;-54
2022/02/22 05:15:12;;;;;;;26.48;16.17;;;5.80;90.20;;;;;;1923762;74;21091;-53
2022/02/22 05:17:41;;;;;;;29.30;16.45;;;5.90;90.50;;;;;;1923816;74;21067;-56
2022/02/22 05:20:11;;;;;;;22.70;14.83;;;6.10;90.70;;;;;;1923838;74;21004;-54
2022/02/22 05:22:41;;;;;;;33.75;17.00;;;6.10;90.50;;;;;;1923796;74;21098;-54
2022/02/22 05:25:12;;;;;;;33.83;18.77;;;6.30;90.60;;;;;;1923780;74;21023;-55
2022/02/22 05:27:42;;;;;;;33.78;18.87;;;6.40;90.60;;;;;;1923766;74;21156;-54
2022/02/22 05:30:13;;;;;;;26.55;15.75;;;6.50;90.40;;;;;;1923760;74;21059;-56
2022/02/22 05:32:42;;;;;;;30.92;17.92;;;6.50;89.90;;;;;;1923825;74;21079;-54
2022/02/22 05:35:13;;;;;;;29.95;18.85;;;6.50;90.20;;;;;;1923746;74;21126;-55
2022/02/22 05:37:42;;;;;;;33.10;20.50;;;6.60;90.40;;;;;;1923774;74;21028;-54
2022/02/22 05:40:13;;;;;;;57.00;33.23;;;6.60;90.40;;;;;;1923878;74;21544;-54
2022/02/22 05:42:42;;;;;;;40.80;23.87;;;6.70;90.40;;;;;;1923931;74;21043;-55
2022/02/22 05:45:11;;;;;;;69.75;39.00;;;6.80;90.40;;;;;;1923742;74;21071;-55
2022/02/22 05:47:41;;;;;;;50.12;30.02;;;6.80;90.50;;;;;;1923732;74;21000;-54
2022/02/22 05:50:10;;;;;;;35.20;21.42;;;6.90;90.40;;;;;;1923705;74;21023;-55
2022/02/22 05:52:40;;;;;;;27.22;17.37;;;7.00;90.50;;;;;;1923735;74;20992;-55
2022/02/22 05:55:09;;;;;;;30.82;18.25;;;7.10;90.40;;;;;;1923826;74;21019;-56
2022/02/22 05:57:39;;;;;;;25.23;15.50;;;7.20;90.50;;;;;;1923780;74;21020;-55
2022/02/22 06:00:10;;;;;;;22.60;15.23;;;7.30;90.50;;;;;;1923721;74;21097;-54
2022/02/22 06:02:39;;;;;;;39.85;22.52;;;7.40;90.10;;;;;;1923817;74;21133;-54
2022/02/22 06:05:09;;;;;;;36.00;19.57;;;7.50;90.20;;;;;;1923849;74;21063;-54
2022/02/22 06:07:38;;;;;;;22.25;14.30;;;7.50;90.10;;;;;;1923766;74;21020;-54
2022/02/22 06:10:08;;;;;;;29.30;16.62;;;7.60;90.10;;;;;;1923869;74;21000;-54
2022/02/22 06:12:37;;;;;;;21.02;13.88;;;7.60;90.00;;;;;;1923719;74;21136;-55
2022/02/22 06:15:07;;;;;;;26.42;15.13;;;7.70;89.90;;;;;;1923740;74;21102;-54
2022/02/22 06:17:41;;;;;;;33.60;18.85;;;7.70;90.00;;;;;;1923818;74;21004;-55
2022/02/22 06:20:12;;;;;;;22.70;14.65;;;7.80;90.00;;;;;;1923768;74;21109;-55
2022/02/22 06:22:41;;;;;;;24.50;15.18;;;7.80;90.00;;;;;;1923805;74;21023;-55
2022/02/22 06:25:11;;;;;;;23.22;13.18;;;7.90;90.00;;;;;;1923757;74;21031;-54
2022/02/22 06:27:48;;;;;;;20.90;13.80;;;7.90;89.70;;;;;;1923854;74;21439;-53
2022/02/22 06:30:18;;;;;;;21.07;12.90;;;8.00;89.60;;;;;;1923718;74;21020;-54
2022/02/22 06:32:49;;;;;;;17.57;12.68;;;8.00;89.60;;;;;;1923817;74;21028;-55
2022/02/22 06:35:20;;;;;;;22.40;14.10;;;8.10;89.60;;;;;;1923717;74;21032;-54
2022/02/22 06:37:50;;;;;;;15.23;10.68;;;8.20;89.70;;;;;;1923719;74;21004;-53
2022/02/22 06:40:19;;;;;;;17.35;11.85;;;8.30;89.60;;;;;;1923709;74;21044;-53
2022/02/22 06:42:49;;;;;;;16.73;11.57;;;8.40;89.20;;;;;;1923743;74;21126;-56
2022/02/22 06:45:18;;;;;;;20.48;11.50;;;8.50;89.20;;;;;;1923734;74;21117;-54
2022/02/22 06:47:47;;;;;;;18.65;9.95;;;8.60;89.20;;;;;;1923748;74;21108;-53
2022/02/22 06:50:17;;;;;;;16.67;10.53;;;8.70;89.20;;;;;;1923833;74;21093;-55
2022/02/22 06:52:47;;;;;;;16.62;10.70;;;8.80;89.10;;;;;;1923748;74;21027;-56
2022/02/22 06:55:16;;;;;;;30.23;22.37;;;8.90;89.00;;;;;;1923684;74;21160;-54
2022/02/22 06:57:55;;;;;;;23.10;16.55;;;9.00;89.00;;;;;;1923860;74;21024;-54
2022/02/22 07:00:25;;;;;;;32.33;17.52;;;9.10;88.80;;;;;;1923730;74;21101;-54
2022/02/22 07:02:54;;;;;;;30.05;16.10;;;9.20;88.40;;;;;;1931672;74;21059;-55
2022/02/22 07:05:23;;;;;;;18.35;11.70;;;9.20;88.20;;;;;;1933422;74;21105;-55
2022/02/22 07:07:52;;;;;;;18.67;10.08;;;9.30;88.30;;;;;;1933526;74;21133;-54
2022/02/22 07:10:21;;;;;;;25.17;14.30;;;9.30;88.00;;;;;;1933389;74;21160;-55
2022/02/22 07:12:51;;;;;;;23.98;14.87;;;9.40;87.90;;;;;;1933474;74;21524;-55
2022/02/22 07:15:20;;;;;;;17.23;12.45;;;9.40;87.90;;;;;;1933498;74;21004;-55
2022/02/22 07:17:51;;;;;;;20.00;9.55;;;9.40;87.60;;;;;;1933511;74;21023;-55
2022/02/22 07:20:22;;;;;;;19.67;11.88;;;9.60;87.10;;;;;;1933494;74;21031;-54
2022/02/22 07:22:59;;;;;;;20.50;10.82;;;9.60;87.20;;;;;;1933376;74;21106;-53
2022/02/22 07:25:30;;;;;;;16.35;9.40;;;9.70;86.70;;;;;;1933480;74;21033;-53
2022/02/22 07:28:01;;;;;;;16.42;10.82;;;9.80;87.40;;;;;;1933453;74;21108;-55
2022/02/22 07:30:31;;;;;;;16.80;9.80;;;9.80;87.40;;;;;;1933394;74;21109;-56
2022/02/22 07:33:04;;;;;;;14.38;9.20;;;9.90;86.20;;;;;;1933473;74;21109;-55
2022/02/22 07:35:34;;;;;;;14.58;7.40;;;10.00;86.90;;;;;;1933417;74;21077;-54
2022/02/22 07:38:03;;;;;;;11.12;7.25;;;10.00;87.10;;;;;;1921903;74;21093;-57
2022/02/22 07:40:33;;;;;;;10.38;6.20;;;10.10;86.70;;;;;;1914094;75;21034;-57
2022/02/22 07:43:02;;;;;;;9.83;6.17;;;10.20;85.30;;;;;;1914090;75;21059;-54
2022/02/22 07:45:32;;;;;;;9.23;6.45;;;10.40;85.70;;;;;;1913777;75;21027;-56
2022/02/22 07:48:02;;;;;;;10.55;6.78;;;10.50;85.70;;;;;;1914078;75;21108;-57
2022/02/22 07:50:32;;;;;;;11.83;6.87;;;10.50;86.20;;;;;;1918531;74;21471;-58
2022/02/22 07:53:01;;;;;;;10.55;6.00;;;10.70;86.20;;;;;;1913197;75;21105;-58
2022/02/22 07:55:30;;;;;;;7.53;5.15;;;10.70;84.00;;;;;;1918175;74;21034;-59
2022/02/22 07:58:00;;;;;;;12.78;6.30;;;10.80;83.20;;;;;;1922861;74;21062;-58
2022/02/22 08:00:29;;;;;;;8.85;6.03;;;10.90;82.20;;;;;;1916457;74;21102;-57
2022/02/22 08:02:59;;;;;;;7.87;5.87;;;11.00;84.20;;;;;;1937120;74;21028;-58
2022/02/22 08:05:30;;;;;;;12.53;6.30;;;11.10;83.50;;;;;;1913983;75;21094;-57
2022/02/22 08:08:00;;;;;;;11.55;5.30;;;11.10;83.20;;;;;;1913611;75;20987;-57
2022/02/22 08:10:30;;;;;;;15.78;5.45;;;11.20;83.10;;;;;;1913357;75;21082;-57
2022/02/22 08:12:59;;;;;;;7.85;5.45;;;11.30;82.70;;;;;;1913534;75;21027;-57
2022/02/22 08:15:28;;;;;;;10.30;5.28;;;11.30;82.10;;;;;;1913449;75;20995;-57
2022/02/22 08:17:58;;;;;;;8.43;5.00;;;11.30;82.10;;;;;;1914159;75;21023;-58
2022/02/22 08:20:28;;;;;;;8.33;4.37;;;11.40;81.40;;;;;;1914063;75;21062;-57
2022/02/22 08:22:59;;;;;;;5.53;3.77;;;11.50;80.20;;;;;;1913965;75;21199;-58
2022/02/22 08:25:28;;;;;;;8.23;4.60;;;11.60;79.20;;;;;;1914184;75;21132;-56
2022/02/22 08:27:57;;;;;;;11.22;5.87;;;11.70;78.70;;;;;;1913980;75;21027;-57
2022/02/22 08:30:27;;;;;;;18.62;6.15;;;11.90;77.80;;;;;;1913778;75;21078;-56
2022/02/22 08:32:56;;;;;;;8.48;4.95;;;12.00;79.00;;;;;;1913492;74;21086;-56
2022/02/22 08:35:26;;;;;;;9.60;4.60;;;12.10;76.90;;;;;;1931110;74;21015;-58
2022/02/22 08:37:55;;;;;;;21.50;9.33;;;12.20;75.40;;;;;;1940879;74;21058;-57
2022/02/22 08:40:25;;;;;;;20.15;5.28;;;12.30;75.70;;;;;;1923039;74;21025;-55
2022/02/22 08:42:54;;;;;;;10.08;4.70;;;12.40;76.00;;;;;;1923065;74;21103;-53
2022/02/22 08:45:25;;;;;;;8.58;4.20;;;12.50;73.80;;;;;;1925781;74;21184;-55
2022/02/22 08:47:55;;;;;;;6.85;4.60;;;12.60;74.10;;;;;;1918503;74;21163;-56
2022/02/22 08:50:25;;;;;;;4.95;3.87;;;12.70;74.90;;;;;;1922381;74;21008;-56
2022/02/22 08:52:54;;;;;;;8.38;4.70;;;12.70;70.60;;;;;;1913415;75;21023;-55
2022/02/22 08:55:24;;;;;;;11.55;4.87;;;12.80;72.30;;;;;;1913681;75;21072;-55
2022/02/22 08:57:53;;;;;;;7.20;4.28;;;12.80;73.00;;;;;;1913926;75;21079;-55
2022/02/22 09:00:23;;;;;;;7.95;4.40;;;12.90;72.40;;;;;;1917996;74;21184;-56
2022/02/22 09:02:57;;;;;;;6.15;4.12;;;12.90;72.60;;;;;;1918921;74;21103;-56
2022/02/22 09:05:28;;;;;;;5.55;4.10;;;13.00;72.30;;;;;;1901142;74;22281;-55
2022/02/22 09:07:57;;;;;;;6.78;4.40;;;13.10;69.40;;;;;;1911331;74;21101;-55
2022/02/22 09:10:27;;;;;;;7.95;5.15;;;13.10;70.20;;;;;;1907727;74;21076;-54
2022/02/22 09:12:56;;;;;;;6.90;4.65;;;13.10;69.50;;;;;;1908734;74;21092;-52
2022/02/22 09:15:28;;;;;;;6.45;4.60;;;13.20;68.80;;;;;;1903794;74;21011;-55
2022/02/22 09:17:57;;;;;;;7.53;4.55;;;13.30;68.40;;;;;;1906206;74;21145;-56
2022/02/22 09:20:26;;;;;;;7.45;4.15;;;13.40;68.30;;;;;;1901132;75;21099;-54
2022/02/22 09:22:56;;;;;;;11.78;4.80;;;13.50;68.50;;;;;;1901835;74;21150;-55
2022/02/22 09:25:33;;;;;;;6.92;4.25;;;13.60;67.80;;;;;;1906603;74;21102;-56
2022/02/22 09:27:58;;;;;;;5.53;3.90;;;13.60;66.60;;;;;;1904587;74;21109;-55
2022/02/22 09:30:28;;;;;;;6.92;4.10;;;13.70;66.70;;;;;;1901032;75;21092;-55
2022/02/22 09:32:59;;;;;;;6.40;4.37;;;13.80;67.50;;;;;;1900483;75;21012;-56
2022/02/22 09:35:28;;;;;;;6.17;4.53;;;13.80;65.90;;;;;;1900696;75;21068;-54
2022/02/22 09:37:58;;;;;;;6.40;3.65;;;13.90;64.70;;;;;;1901198;75;21091;-55
2022/02/22 09:40:28;;;;;;;12.75;4.75;;;13.90;64.30;;;;;;1901577;75;21110;-53
2022/02/22 09:43:00;;;;;;;11.88;5.33;;;14.00;64.20;;;;;;1901274;75;21036;-52
2022/02/22 09:45:29;;;;;;;7.97;4.30;;;14.00;65.20;;;;;;1901544;75;21084;-49
2022/02/22 09:48:01;;;;;;;8.90;4.65;;;14.00;63.20;;;;;;1901518;75;21102;-47
2022/02/22 09:50:30;;;;;;;10.32;4.65;;;14.00;62.70;;;;;;1901391;75;21165;-48
2022/02/22 09:53:00;;;;;;;5.03;3.62;;;14.00;64.00;;;;;;1901551;75;21177;-50
2022/02/22 09:55:29;;;;;;;7.80;5.15;;;14.00;63.50;;;;;;1901581;75;21033;-50
2022/02/22 09:57:59;;;;;;;11.40;4.67;;;14.00;63.70;;;;;;1901282;75;21130;-49
2022/02/22 10:00:35;;;;;;;11.85;4.70;;;13.90;64.20;;;;;;1901526;75;21025;-48
2022/02/22 10:03:06;;;;;;;5.42;4.37;;;13.90;63.30;;;;;;1901213;75;21143;-52
2022/02/22 10:05:36;;;;;;;6.58;3.80;;;13.80;64.10;;;;;;1899855;75;21451;-48
2022/02/22 10:08:06;;;;;;;7.00;4.58;;;13.80;63.30;;;;;;1901518;75;21036;-54
2022/02/22 10:10:43;;;;;;;22.37;6.22;;;13.80;63.30;;;;;;1901653;75;21157;-46
2022/02/22 10:13:20;;;;;;;6.85;4.33;;;13.80;63.60;;;;;;1901339;75;21467;-52
2022/02/22 10:15:51;;;;;;;8.00;4.15;;;13.80;62.40;;;;;;1901561;75;21108;-50
2022/02/22 10:18:20;;;;;;;8.85;4.70;;;13.80;62.70;;;;;;1901628;75;21028;-53
2022/02/22 10:20:50;;;;;;;8.60;4.25;;;13.80;63.30;;;;;;1901350;75;21032;-49
2022/02/22 10:23:32;;;;;;;5.47;4.12;;;13.90;63.20;;;;;;1901550;75;21072;-51
2022/02/22 10:26:02;;;;;;;6.53;4.22;;;13.80;62.70;;;;;;1901369;75;21032;-50
2022/02/22 10:28:31;;;;;;;9.23;3.95;;;13.80;62.70;;;;;;1901605;75;21080;-52
2022/02/22 10:31:02;;;;;;;6.90;4.90;;;13.80;62.10;;;;;;1901610;75;21080;-51
2022/02/22 10:33:33;;;;;;;5.80;4.50;;;13.80;62.20;;;;;;1900680;75;21580;-54
2022/02/22 10:36:05;;;;;;;5.25;4.10;;;13.90;62.60;;;;;;1901499;75;21479;-49
2022/02/22 10:38:36;;;;;;;4.33;3.15;;;13.80;62.30;;;;;;1901637;75;21154;-48
2022/02/22 10:41:15;;;;;;;7.60;4.05;;;13.90;60.60;;;;;;1901282;75;21130;-54
2022/02/22 10:43:53;;;;;;;5.92;4.17;;;13.90;62.20;;;;;;1901608;75;21053;-52
2022/02/22 10:46:27;;;;;;;6.00;4.05;;;13.90;62.30;;;;;;1901653;75;21127;-52
2022/02/22 10:49:04;;;;;;;10.38;4.60;;;13.90;61.70;;;;;;1900603;75;21495;-55
2022/02/22 10:51:42;;;;;;;8.53;3.62;;;14.00;62.10;;;;;;1901506;75;21668;-55
2022/02/22 10:54:20;;;;;;;4.78;3.70;;;13.90;61.10;;;;;;1901606;75;21048;-52
2022/02/22 10:56:50;;;;;;;5.92;4.08;;;14.00;61.00;;;;;;1901200;75;21048;-48
2022/02/22 10:59:21;;;;;;;4.92;3.15;;;14.00;61.80;;;;;;1901554;75;21060;-51
2022/02/22 11:01:51;;;;;;;5.87;3.70;;;14.00;60.80;;;;;;1900962;75;21044;-52
2022/02/22 11:04:21;;;;;;;11.63;4.80;;;14.00;60.30;;;;;;1906231;75;21181;-48
2022/02/22 11:06:51;;;;;;;76.97;16.32;;;14.00;61.00;;;;;;1914134;75;21028;-48
2022/02/22 11:09:21;;;;;;;13.95;5.10;;;14.00;61.10;;;;;;1914065;75;21173;-49
2022/02/22 11:11:59;;;;;;;5.83;3.72;;;14.00;61.40;;;;;;1913831;75;21079;-49
2022/02/22 11:14:33;;;;;;;7.08;3.40;;;14.10;61.10;;;;;;1907685;75;21637;-53
2022/02/22 11:17:04;;;;;;;5.55;3.72;;;14.00;61.10;;;;;;1914279;75;21016;-50
2022/02/22 11:19:38;;;;;;;6.33;4.42;;;14.00;60.80;;;;;;1911470;75;22210;-51
2022/02/22 11:22:19;;;;;;;8.53;4.03;;;14.10;60.80;;;;;;1914266;75;21098;-51
2022/02/22 11:24:51;;;;;;;6.45;3.10;;;14.20;60.60;;;;;;1913836;75;21111;-54
2022/02/22 11:27:34;;;;;;;10.75;5.50;;;14.20;59.40;;;;;;1914102;75;21146;-52
2022/02/22 11:30:10;;;;;;;12.85;5.25;;;14.30;60.00;;;;;;1914097;75;21171;-55
2022/02/22 11:32:42;;;;;;;7.17;4.60;;;14.40;60.00;;;;;;1914643;75;21040;-46
2022/02/22 11:35:13;;;;;;;4.15;3.58;;;14.40;59.50;;;;;;1914972;75;21457;-51
2022/02/22 11:37:46;;;;;;;7.90;5.55;;;14.40;59.40;;;;;;1914813;75;21055;-48
2022/02/22 11:40:24;;;;;;;7.65;3.60;;;14.40;58.40;;;;;;1914702;75;21035;-47
2022/02/22 11:43:08;;;;;;;9.38;3.50;;;14.50;58.90;;;;;;1914772;75;21028;-49
2022/02/22 11:45:38;;;;;;;5.55;3.70;;;14.50;59.30;;;;;;1914880;75;21106;-50
2022/02/22 11:48:25;;;;;;;9.10;3.77;;;14.50;59.10;;;;;;1914858;75;21024;-48
2022/02/22 11:50:59;;;;;;;9.58;4.20;;;14.40;59.50;;;;;;1914913;75;21044;-48
2022/02/22 11:53:31;;;;;;;6.67;4.83;;;14.40;57.90;;;;;;1914938;75;21044;-50
2022/02/22 11:56:01;;;;;;;5.20;3.45;;;14.50;57.60;;;;;;1914898;75;21036;-51
2022/02/22 11:58:32;;;;;;;8.35;5.05;;;14.50;57.50;;;;;;1914744;75;21102;-49
2022/02/22 12:01:05;;;;;;;3.47;2.87;;;14.50;57.20;;;;;;1914875;75;21064;-51
2022/02/22 12:03:44;;;;;;;6.25;3.60;;;14.60;56.00;;;;;;1914748;75;21036;-51
2022/02/22 12:06:14;;;;;;;9.35;4.22;;;14.60;56.40;;;;;;1897631;75;21197;-48
2022/02/22 12:08:50;;;;;;;9.03;4.47;;;14.60;56.20;;;;;;1902125;75;21110;-49
2022/02/22 12:11:21;;;;;;;17.05;4.10;;;14.60;56.70;;;;;;1901436;75;21489;-48
2022/02/22 12:13:55;;;;;;;9.03;4.55;;;14.60;57.10;;;;;;1901291;75;21032;-50
2022/02/22 12:16:32;;;;;;;5.35;3.42;;;14.60;56.30;;;;;;1902072;75;21104;-48
2022/02/22 12:19:01;;;;;;;4.62;3.37;;;14.60;56.60;;;;;;1901046;75;21538;-48
2022/02/22 12:21:31;;;;;;;5.37;3.62;;;14.60;56.80;;;;;;1901996;75;21475;-49
2022/02/22 12:24:01;;;;;;;5.12;3.25;;;14.60;56.40;;;;;;1902080;75;21020;-49
2022/02/22 12:26:31;;;;;;;6.83;3.35;;;14.50;55.60;;;;;;1902041;75;21021;-49
2022/02/22 12:29:03;;;;;;;13.85;4.05;;;14.50;56.00;;;;;;1902147;75;21016;-48
2022/02/22 12:31:39;;;;;;;8.48;3.37;;;14.60;55.40;;;;;;1902166;75;21056;-49
2022/02/22 12:34:11;;;;;;;8.05;4.15;;;14.60;55.70;;;;;;1901837;75;21118;-48
2022/02/22 12:36:46;;;;;;;8.45;3.62;;;14.50;55.30;;;;;;1901911;75;21048;-51
2022/02/22 12:39:18;;;;;;;10.75;4.90;;;14.50;55.80;;;;;;1902203;75;21036;-51
2022/02/22 12:41:49;;;;;;;13.20;4.28;;;14.50;55.40;;;;;;1902111;75;21495;-48
2022/02/22 12:44:20;;;;;;;10.13;3.87;;;14.50;55.30;;;;;;1902007;75;21036;-51
2022/02/22 12:46:52;;;;;;;5.28;3.70;;;14.40;55.10;;;;;;1902203;75;21008;-49
2022/02/22 12:49:22;;;;;;;6.47;3.67;;;14.50;55.20;;;;;;1902094;75;21106;-49
2022/02/22 12:52:00;;;;;;;6.72;3.70;;;14.50;54.40;;;;;;1902168;75;21032;-50
2022/02/22 12:54:30;;;;;;;4.95;3.02;;;14.50;54.00;;;;;;1902000;75;21032;-48
2022/02/22 12:57:01;;;;;;;5.33;2.92;;;14.50;54.20;;;;;;1902125;75;21162;-48